sensor_id;sensor_type;location;lat;lon;timestamp;P1;durP1;ratioP1;P2;durP2;ratioP2
36105;SDS011;22159;55.736;38.048;2024-03-08T00:02:17;1.20;;;1.10;;
36105;SDS011;22159;55.736;38.048;2024-03-08T00:04:44;0.82;;;0.80;;
36105;SDS011;22159;55.736;38.048;2024-03-08T00:07:11;0.73;;;0.73;;
36105;SDS011;22159;55.736;38.048;2024-03-08T00:09:38;1.50;;;0.85;;
36105;SDS011;22159;55.736;38.048;2024-03-08T00:12:04;1.15;;;1.00;;
36105;SDS011;22159;55.736;38.048;2024-03-08T00:14:31;1.10;;;1.00;;
36105;SDS011;22159;55.736;38.048;2024-03-08T00:16:58;1.33;;;1.00;;
36105;SDS011;22159;55.736;38.048;2024-03-08T00:19:24;1.20;;;1.10;;
36105;SDS011;22159;55.736;38.048;2024-03-08T00:21:50;1.17;;;1.00;;
36105;SDS011;22159;55.736;38.048;2024-03-08T00:24:16;1.20;;;0.93;;
36105;SDS011;22159;55.736;38.048;2024-03-08T00:26:42;2.05;;;1.10;;
36105;SDS011;22159;55.736;38.048;2024-03-08T00:29:08;1.15;;;0.90;;
36105;SDS011;22159;55.736;38.048;2024-03-08T00:31:34;1.52;;;1.10;;
36105;SDS011;22159;55.736;38.048;2024-03-08T00:34:00;0.80;;;0.80;;
36105;SDS011;22159;55.736;38.048;2024-03-08T00:36:27;0.80;;;0.80;;
36105;SDS011;22159;55.736;38.048;2024-03-08T00:38:55;0.82;;;0.82;;
36105;SDS011;22159;55.736;38.048;2024-03-08T00:41:21;1.20;;;1.10;;
36105;SDS011;22159;55.736;38.048;2024-03-08T00:43:47;0.88;;;0.88;;
36105;SDS011;22159;55.736;38.048;2024-03-08T00:46:14;0.80;;;0.80;;
36105;SDS011;22159;55.736;38.048;2024-03-08T00:48:40;1.15;;;1.05;;
36105;SDS011;22159;55.736;38.048;2024-03-08T00:51:08;0.80;;;0.80;;
36105;SDS011;22159;55.736;38.048;2024-03-08T00:53:34;1.20;;;1.10;;
36105;SDS011;22159;55.736;38.048;2024-03-08T00:56:00;1.33;;;0.80;;
36105;SDS011;22159;55.736;38.048;2024-03-08T00:58:26;1.10;;;1.00;;
36105;SDS011;22159;55.736;38.048;2024-03-08T01:00:54;1.02;;;0.93;;
36105;SDS011;22159;55.736;38.048;2024-03-08T01:03:21;1.15;;;1.10;;
36105;SDS011;22159;55.736;38.048;2024-03-08T01:05:47;0.75;;;0.75;;
36105;SDS011;22159;55.736;38.048;2024-03-08T01:08:13;1.00;;;0.85;;
36105;SDS011;22159;55.736;38.048;2024-03-08T01:10:39;1.20;;;1.00;;
36105;SDS011;22159;55.736;38.048;2024-03-08T01:13:05;1.17;;;0.98;;
36105;SDS011;22159;55.736;38.048;2024-03-08T01:15:32;1.88;;;0.90;;
36105;SDS011;22159;55.736;38.048;2024-03-08T01:17:58;0.90;;;0.90;;
36105;SDS011;22159;55.736;38.048;2024-03-08T01:20:25;1.10;;;0.80;;
36105;SDS011;22159;55.736;38.048;2024-03-08T01:22:52;1.17;;;0.80;;
36105;SDS011;22159;55.736;38.048;2024-03-08T01:25:18;0.98;;;0.88;;
36105;SDS011;22159;55.736;38.048;2024-03-08T01:27:44;1.00;;;0.90;;
36105;SDS011;22159;55.736;38.048;2024-03-08T01:30:10;1.27;;;1.00;;
36105;SDS011;22159;55.736;38.048;2024-03-08T01:32:36;1.00;;;0.88;;
36105;SDS011;22159;55.736;38.048;2024-03-08T01:35:03;0.82;;;0.80;;
36105;SDS011;22159;55.736;38.048;2024-03-08T01:37:29;1.50;;;1.10;;
36105;SDS011;22159;55.736;38.048;2024-03-08T01:39:55;0.70;;;0.70;;
36105;SDS011;22159;55.736;38.048;2024-03-08T01:42:21;0.98;;;0.75;;
36105;SDS011;22159;55.736;38.048;2024-03-08T01:44:47;1.00;;;0.95;;
36105;SDS011;22159;55.736;38.048;2024-03-08T01:47:13;1.17;;;0.90;;
36105;SDS011;22159;55.736;38.048;2024-03-08T01:49:40;0.88;;;0.85;;
36105;SDS011;22159;55.736;38.048;2024-03-08T01:52:06;1.80;;;1.00;;
36105;SDS011;22159;55.736;38.048;2024-03-08T01:54:32;0.85;;;0.85;;
36105;SDS011;22159;55.736;38.048;2024-03-08T01:56:59;1.42;;;0.93;;
36105;SDS011;22159;55.736;38.048;2024-03-08T01:59:25;1.58;;;0.80;;
36105;SDS011;22159;55.736;38.048;2024-03-08T02:01:53;0.80;;;0.80;;
36105;SDS011;22159;55.736;38.048;2024-03-08T02:04:21;0.77;;;0.77;;
36105;SDS011;22159;55.736;38.048;2024-03-08T02:06:47;1.00;;;0.90;;
36105;SDS011;22159;55.736;38.048;2024-03-08T02:09:13;0.80;;;0.80;;
36105;SDS011;22159;55.736;38.048;2024-03-08T02:11:40;0.77;;;0.70;;
36105;SDS011;22159;55.736;38.048;2024-03-08T02:14:06;34.30;;;11.00;;
36105;SDS011;22159;55.736;38.048;2024-03-08T02:16:32;50.55;;;14.55;;
36105;SDS011;22159;55.736;38.048;2024-03-08T02:18:58;39.72;;;13.32;;
36105;SDS011;22159;55.736;38.048;2024-03-08T02:21:25;38.17;;;12.63;;
36105;SDS011;22159;55.736;38.048;2024-03-08T02:23:51;31.40;;;12.25;;
36105;SDS011;22159;55.736;38.048;2024-03-08T02:26:17;31.27;;;11.55;;
36105;SDS011;22159;55.736;38.048;2024-03-08T02:28:44;31.70;;;11.23;;
36105;SDS011;22159;55.736;38.048;2024-03-08T02:31:10;24.00;;;8.05;;
36105;SDS011;22159;55.736;38.048;2024-03-08T02:33:37;23.60;;;8.57;;
36105;SDS011;22159;55.736;38.048;2024-03-08T02:36:03;20.23;;;7.25;;
36105;SDS011;22159;55.736;38.048;2024-03-08T02:38:31;22.00;;;8.18;;
36105;SDS011;22159;55.736;38.048;2024-03-08T02:40:58;22.20;;;7.45;;
36105;SDS011;22159;55.736;38.048;2024-03-08T02:43:24;16.23;;;6.70;;
36105;SDS011;22159;55.736;38.048;2024-03-08T02:45:50;15.38;;;6.25;;
36105;SDS011;22159;55.736;38.048;2024-03-08T02:48:19;14.15;;;5.38;;
36105;SDS011;22159;55.736;38.048;2024-03-08T02:50:47;15.77;;;5.50;;
36105;SDS011;22159;55.736;38.048;2024-03-08T02:53:13;13.82;;;5.00;;
36105;SDS011;22159;55.736;38.048;2024-03-08T02:55:39;9.70;;;4.47;;
36105;SDS011;22159;55.736;38.048;2024-03-08T02:58:06;11.32;;;4.15;;
36105;SDS011;22159;55.736;38.048;2024-03-08T03:00:36;12.18;;;4.75;;
36105;SDS011;22159;55.736;38.048;2024-03-08T03:03:03;10.82;;;4.05;;
36105;SDS011;22159;55.736;38.048;2024-03-08T03:05:30;10.57;;;4.65;;
36105;SDS011;22159;55.736;38.048;2024-03-08T03:07:56;9.88;;;4.53;;
36105;SDS011;22159;55.736;38.048;2024-03-08T03:10:23;10.40;;;4.10;;
36105;SDS011;22159;55.736;38.048;2024-03-08T03:12:49;11.80;;;4.07;;
36105;SDS011;22159;55.736;38.048;2024-03-08T03:15:16;7.90;;;3.50;;
36105;SDS011;22159;55.736;38.048;2024-03-08T03:17:45;8.18;;;3.50;;
36105;SDS011;22159;55.736;38.048;2024-03-08T03:20:12;7.25;;;3.50;;
36105;SDS011;22159;55.736;38.048;2024-03-08T03:22:39;9.55;;;3.67;;
36105;SDS011;22159;55.736;38.048;2024-03-08T03:25:12;8.32;;;3.10;;
36105;SDS011;22159;55.736;38.048;2024-03-08T03:27:39;9.07;;;3.17;;
36105;SDS011;22159;55.736;38.048;2024-03-08T03:30:07;7.80;;;3.13;;
36105;SDS011;22159;55.736;38.048;2024-03-08T03:32:48;9.10;;;3.17;;
36105;SDS011;22159;55.736;38.048;2024-03-08T03:35:19;4.80;;;2.45;;
36105;SDS011;22159;55.736;38.048;2024-03-08T03:37:48;5.85;;;2.50;;
36105;SDS011;22159;55.736;38.048;2024-03-08T03:40:32;5.10;;;2.42;;
36105;SDS011;22159;55.736;38.048;2024-03-08T03:42:58;6.20;;;2.67;;
36105;SDS011;22159;55.736;38.048;2024-03-08T03:45:24;4.80;;;2.40;;
36105;SDS011;22159;55.736;38.048;2024-03-08T03:47:50;6.50;;;2.35;;
36105;SDS011;22159;55.736;38.048;2024-03-08T03:50:20;5.90;;;2.10;;
36105;SDS011;22159;55.736;38.048;2024-03-08T03:52:47;4.83;;;2.03;;
36105;SDS011;22159;55.736;38.048;2024-03-08T03:55:13;4.32;;;2.30;;
36105;SDS011;22159;55.736;38.048;2024-03-08T03:57:40;3.10;;;1.90;;
36105;SDS011;22159;55.736;38.048;2024-03-08T04:00:06;4.53;;;2.13;;
36105;SDS011;22159;55.736;38.048;2024-03-08T04:02:37;3.00;;;1.80;;
36105;SDS011;22159;55.736;38.048;2024-03-08T04:05:04;3.20;;;1.85;;
36105;SDS011;22159;55.736;38.048;2024-03-08T04:07:30;4.07;;;2.10;;
36105;SDS011;22159;55.736;38.048;2024-03-08T04:09:56;4.22;;;2.00;;
36105;SDS011;22159;55.736;38.048;2024-03-08T04:12:22;3.70;;;1.90;;
36105;SDS011;22159;55.736;38.048;2024-03-08T04:14:48;3.30;;;2.22;;
36105;SDS011;22159;55.736;38.048;2024-03-08T04:17:15;3.97;;;2.15;;
36105;SDS011;22159;55.736;38.048;2024-03-08T04:19:42;3.75;;;1.88;;
36105;SDS011;22159;55.736;38.048;2024-03-08T04:22:08;2.70;;;1.98;;
36105;SDS011;22159;55.736;38.048;2024-03-08T04:24:34;2.78;;;1.77;;
36105;SDS011;22159;55.736;38.048;2024-03-08T04:27:01;2.58;;;1.70;;
36105;SDS011;22159;55.736;38.048;2024-03-08T04:29:27;3.63;;;2.08;;
36105;SDS011;22159;55.736;38.048;2024-03-08T04:31:53;3.45;;;1.88;;
36105;SDS011;22159;55.736;38.048;2024-03-08T04:34:22;2.65;;;1.80;;
36105;SDS011;22159;55.736;38.048;2024-03-08T04:36:49;3.13;;;2.00;;
36105;SDS011;22159;55.736;38.048;2024-03-08T04:39:15;2.88;;;1.73;;
36105;SDS011;22159;55.736;38.048;2024-03-08T04:41:43;3.50;;;1.75;;
36105;SDS011;22159;55.736;38.048;2024-03-08T04:44:10;2.58;;;1.50;;
36105;SDS011;22159;55.736;38.048;2024-03-08T04:46:37;2.95;;;1.67;;
36105;SDS011;22159;55.736;38.048;2024-03-08T04:49:04;2.65;;;1.70;;
36105;SDS011;22159;55.736;38.048;2024-03-08T04:51:32;2.78;;;1.52;;
36105;SDS011;22159;55.736;38.048;2024-03-08T04:53:58;3.15;;;1.70;;
36105;SDS011;22159;55.736;38.048;2024-03-08T04:56:25;3.55;;;1.80;;
36105;SDS011;22159;55.736;38.048;2024-03-08T04:58:51;2.85;;;1.52;;
36105;SDS011;22159;55.736;38.048;2024-03-08T05:01:17;4.75;;;1.40;;
36105;SDS011;22159;55.736;38.048;2024-03-08T05:03:43;1.73;;;1.27;;
36105;SDS011;22159;55.736;38.048;2024-03-08T05:06:09;2.60;;;1.30;;
36105;SDS011;22159;55.736;38.048;2024-03-08T05:08:35;3.60;;;1.60;;
36105;SDS011;22159;55.736;38.048;2024-03-08T05:11:01;2.65;;;1.52;;
36105;SDS011;22159;55.736;38.048;2024-03-08T05:13:29;2.33;;;1.40;;
36105;SDS011;22159;55.736;38.048;2024-03-08T05:15:56;3.60;;;1.65;;
36105;SDS011;22159;55.736;38.048;2024-03-08T05:18:25;2.42;;;1.27;;
36105;SDS011;22159;55.736;38.048;2024-03-08T05:20:53;2.38;;;1.23;;
36105;SDS011;22159;55.736;38.048;2024-03-08T05:23:19;2.70;;;1.67;;
36105;SDS011;22159;55.736;38.048;2024-03-08T05:25:47;2.25;;;1.50;;
36105;SDS011;22159;55.736;38.048;2024-03-08T05:28:13;2.13;;;1.40;;
36105;SDS011;22159;55.736;38.048;2024-03-08T05:30:40;2.22;;;1.35;;
36105;SDS011;22159;55.736;38.048;2024-03-08T05:33:06;1.83;;;1.13;;
36105;SDS011;22159;55.736;38.048;2024-03-08T05:35:35;1.40;;;1.30;;
36105;SDS011;22159;55.736;38.048;2024-03-08T05:38:02;1.10;;;1.00;;
36105;SDS011;22159;55.736;38.048;2024-03-08T05:40:28;3.40;;;1.70;;
36105;SDS011;22159;55.736;38.048;2024-03-08T05:42:57;1.30;;;1.20;;
36105;SDS011;22159;55.736;38.048;2024-03-08T05:45:24;2.20;;;1.20;;
36105;SDS011;22159;55.736;38.048;2024-03-08T05:47:50;2.20;;;1.40;;
36105;SDS011;22159;55.736;38.048;2024-03-08T05:50:17;2.13;;;1.13;;
36105;SDS011;22159;55.736;38.048;2024-03-08T05:52:44;2.38;;;1.08;;
36105;SDS011;22159;55.736;38.048;2024-03-08T05:55:12;1.70;;;1.00;;
36105;SDS011;22159;55.736;38.048;2024-03-08T05:57:39;1.60;;;0.90;;
36105;SDS011;22159;55.736;38.048;2024-03-08T06:00:07;1.38;;;0.90;;
36105;SDS011;22159;55.736;38.048;2024-03-08T06:02:33;1.85;;;1.15;;
36105;SDS011;22159;55.736;38.048;2024-03-08T06:05:01;2.53;;;1.33;;
36105;SDS011;22159;55.736;38.048;2024-03-08T06:07:27;3.05;;;1.02;;
36105;SDS011;22159;55.736;38.048;2024-03-08T06:09:53;2.33;;;1.20;;
36105;SDS011;22159;55.736;38.048;2024-03-08T06:12:19;2.88;;;0.80;;
36105;SDS011;22159;55.736;38.048;2024-03-08T06:14:46;1.38;;;1.00;;
36105;SDS011;22159;55.736;38.048;2024-03-08T06:17:12;1.55;;;1.02;;
36105;SDS011;22159;55.736;38.048;2024-03-08T06:19:38;1.85;;;1.05;;
36105;SDS011;22159;55.736;38.048;2024-03-08T06:22:04;2.35;;;0.95;;
36105;SDS011;22159;55.736;38.048;2024-03-08T06:24:34;1.20;;;1.00;;
36105;SDS011;22159;55.736;38.048;2024-03-08T06:29:27;2.92;;;1.00;;
36105;SDS011;22159;55.736;38.048;2024-03-08T06:31:54;1.05;;;0.95;;
36105;SDS011;22159;55.736;38.048;2024-03-08T06:34:20;1.83;;;0.98;;
36105;SDS011;22159;55.736;38.048;2024-03-08T06:36:46;2.00;;;1.00;;
36105;SDS011;22159;55.736;38.048;2024-03-08T06:39:13;2.17;;;0.90;;
36105;SDS011;22159;55.736;38.048;2024-03-08T06:41:39;1.40;;;0.90;;
36105;SDS011;22159;55.736;38.048;2024-03-08T06:44:05;1.10;;;0.80;;
36105;SDS011;22159;55.736;38.048;2024-03-08T06:46:33;1.23;;;1.10;;
36105;SDS011;22159;55.736;38.048;2024-03-08T06:48:59;0.85;;;0.85;;
36105;SDS011;22159;55.736;38.048;2024-03-08T06:51:25;0.80;;;0.80;;
36105;SDS011;22159;55.736;38.048;2024-03-08T06:53:51;0.95;;;0.88;;
36105;SDS011;22159;55.736;38.048;2024-03-08T06:56:18;1.30;;;0.95;;
36105;SDS011;22159;55.736;38.048;2024-03-08T06:58:44;0.77;;;0.70;;
36105;SDS011;22159;55.736;38.048;2024-03-08T07:01:11;1.10;;;0.88;;
36105;SDS011;22159;55.736;38.048;2024-03-08T07:03:41;1.95;;;1.00;;
36105;SDS011;22159;55.736;38.048;2024-03-08T07:06:10;1.23;;;0.80;;
36105;SDS011;22159;55.736;38.048;2024-03-08T07:08:36;1.45;;;1.00;;
36105;SDS011;22159;55.736;38.048;2024-03-08T07:11:03;1.00;;;0.90;;
36105;SDS011;22159;55.736;38.048;2024-03-08T07:13:29;0.70;;;0.70;;
36105;SDS011;22159;55.736;38.048;2024-03-08T07:15:55;1.00;;;0.85;;
36105;SDS011;22159;55.736;38.048;2024-03-08T07:18:24;1.45;;;0.77;;
36105;SDS011;22159;55.736;38.048;2024-03-08T07:20:50;1.25;;;0.82;;
36105;SDS011;22159;55.736;38.048;2024-03-08T07:23:16;0.90;;;0.88;;
36105;SDS011;22159;55.736;38.048;2024-03-08T07:26:15;0.88;;;0.70;;
36105;SDS011;22159;55.736;38.048;2024-03-08T07:28:41;1.10;;;1.00;;
36105;SDS011;22159;55.736;38.048;2024-03-08T07:31:07;1.13;;;0.90;;
36105;SDS011;22159;55.736;38.048;2024-03-08T07:33:37;1.10;;;0.80;;
36105;SDS011;22159;55.736;38.048;2024-03-08T07:36:03;1.23;;;0.57;;
36105;SDS011;22159;55.736;38.048;2024-03-08T07:38:29;1.17;;;0.80;;
36105;SDS011;22159;55.736;38.048;2024-03-08T07:40:56;1.25;;;0.88;;
36105;SDS011;22159;55.736;38.048;2024-03-08T07:43:22;1.00;;;0.70;;
36105;SDS011;22159;55.736;38.048;2024-03-08T07:45:48;0.93;;;0.82;;
36105;SDS011;22159;55.736;38.048;2024-03-08T07:48:14;1.73;;;1.00;;
36105;SDS011;22159;55.736;38.048;2024-03-08T07:50:41;0.90;;;0.70;;
36105;SDS011;22159;55.736;38.048;2024-03-08T07:53:08;0.70;;;0.70;;
36105;SDS011;22159;55.736;38.048;2024-03-08T07:55:34;0.98;;;0.70;;
36105;SDS011;22159;55.736;38.048;2024-03-08T07:58:04;1.20;;;0.70;;
36105;SDS011;22159;55.736;38.048;2024-03-08T08:00:30;0.85;;;0.68;;
36105;SDS011;22159;55.736;38.048;2024-03-08T08:02:56;0.95;;;0.77;;
36105;SDS011;22159;55.736;38.048;2024-03-08T08:05:23;0.70;;;0.70;;
36105;SDS011;22159;55.736;38.048;2024-03-08T08:07:49;0.70;;;0.70;;
36105;SDS011;22159;55.736;38.048;2024-03-08T08:10:17;1.95;;;0.70;;
36105;SDS011;22159;55.736;38.048;2024-03-08T08:12:50;0.77;;;0.77;;
36105;SDS011;22159;55.736;38.048;2024-03-08T08:15:19;0.90;;;0.70;;
36105;SDS011;22159;55.736;38.048;2024-03-08T08:17:45;0.98;;;0.80;;
36105;SDS011;22159;55.736;38.048;2024-03-08T08:20:12;0.75;;;0.60;;
36105;SDS011;22159;55.736;38.048;2024-03-08T08:22:39;1.00;;;0.90;;
36105;SDS011;22159;55.736;38.048;2024-03-08T08:25:06;0.98;;;0.73;;
36105;SDS011;22159;55.736;38.048;2024-03-08T08:27:32;1.55;;;0.70;;
36105;SDS011;22159;55.736;38.048;2024-03-08T08:29:58;1.30;;;0.70;;
36105;SDS011;22159;55.736;38.048;2024-03-08T08:32:25;1.10;;;0.60;;
36105;SDS011;22159;55.736;38.048;2024-03-08T08:34:51;0.82;;;0.50;;
36105;SDS011;22159;55.736;38.048;2024-03-08T08:37:17;0.82;;;0.70;;
36105;SDS011;22159;55.736;38.048;2024-03-08T08:39:43;0.82;;;0.60;;
36105;SDS011;22159;55.736;38.048;2024-03-08T08:42:09;0.60;;;0.60;;
36105;SDS011;22159;55.736;38.048;2024-03-08T08:44:36;0.80;;;0.80;;
36105;SDS011;22159;55.736;38.048;2024-03-08T08:47:02;1.83;;;0.80;;
36105;SDS011;22159;55.736;38.048;2024-03-08T08:49:29;0.93;;;0.85;;
36105;SDS011;22159;55.736;38.048;2024-03-08T08:51:55;0.50;;;0.50;;
36105;SDS011;22159;55.736;38.048;2024-03-08T08:54:23;0.75;;;0.70;;
36105;SDS011;22159;55.736;38.048;2024-03-08T08:56:50;0.70;;;0.70;;
36105;SDS011;22159;55.736;38.048;2024-03-08T08:59:16;1.00;;;0.75;;
36105;SDS011;22159;55.736;38.048;2024-03-08T09:01:46;0.80;;;0.70;;
36105;SDS011;22159;55.736;38.048;2024-03-08T09:04:12;0.90;;;0.70;;
36105;SDS011;22159;55.736;38.048;2024-03-08T09:06:38;0.80;;;0.80;;
36105;SDS011;22159;55.736;38.048;2024-03-08T09:09:09;3.40;;;0.70;;
36105;SDS011;22159;55.736;38.048;2024-03-08T09:11:36;0.60;;;0.60;;
36105;SDS011;22159;55.736;38.048;2024-03-08T09:14:06;1.35;;;0.60;;
36105;SDS011;22159;55.736;38.048;2024-03-08T09:16:33;1.73;;;0.70;;
36105;SDS011;22159;55.736;38.048;2024-03-08T09:18:59;0.50;;;0.50;;
36105;SDS011;22159;55.736;38.048;2024-03-08T09:21:25;0.88;;;0.80;;
36105;SDS011;22159;55.736;38.048;2024-03-08T09:23:52;1.90;;;0.60;;
36105;SDS011;22159;55.736;38.048;2024-03-08T09:26:18;2.13;;;0.45;;
36105;SDS011;22159;55.736;38.048;2024-03-08T09:28:45;1.83;;;0.70;;
36105;SDS011;22159;55.736;38.048;2024-03-08T09:31:11;2.67;;;0.80;;
36105;SDS011;22159;55.736;38.048;2024-03-08T09:33:37;0.93;;;0.68;;
36105;SDS011;22159;55.736;38.048;2024-03-08T09:36:05;1.48;;;0.57;;
36105;SDS011;22159;55.736;38.048;2024-03-08T09:38:32;1.58;;;0.73;;
36105;SDS011;22159;55.736;38.048;2024-03-08T09:40:59;1.73;;;0.80;;
36105;SDS011;22159;55.736;38.048;2024-03-08T09:43:27;1.48;;;0.80;;
36105;SDS011;22159;55.736;38.048;2024-03-08T09:45:53;0.90;;;0.80;;
36105;SDS011;22159;55.736;38.048;2024-03-08T09:48:21;3.10;;;0.70;;
36105;SDS011;22159;55.736;38.048;2024-03-08T09:50:47;1.00;;;0.80;;
36105;SDS011;22159;55.736;38.048;2024-03-08T09:53:14;2.05;;;0.70;;
36105;SDS011;22159;55.736;38.048;2024-03-08T09:55:41;0.73;;;0.73;;
36105;SDS011;22159;55.736;38.048;2024-03-08T09:58:11;1.52;;;0.95;;
36105;SDS011;22159;55.736;38.048;2024-03-08T10:00:46;1.70;;;1.10;;
36105;SDS011;22159;55.736;38.048;2024-03-08T10:03:13;1.45;;;1.00;;
36105;SDS011;22159;55.736;38.048;2024-03-08T10:05:42;1.20;;;1.00;;
36105;SDS011;22159;55.736;38.048;2024-03-08T10:08:09;1.95;;;1.20;;
36105;SDS011;22159;55.736;38.048;2024-03-08T10:10:39;2.78;;;0.98;;
36105;SDS011;22159;55.736;38.048;2024-03-08T10:13:06;4.55;;;1.27;;
36105;SDS011;22159;55.736;38.048;2024-03-08T10:15:32;1.83;;;0.93;;
36105;SDS011;22159;55.736;38.048;2024-03-08T10:17:58;1.30;;;1.20;;
36105;SDS011;22159;55.736;38.048;2024-03-08T10:20:25;1.70;;;1.10;;
36105;SDS011;22159;55.736;38.048;2024-03-08T10:22:54;1.77;;;0.90;;
36105;SDS011;22159;55.736;38.048;2024-03-08T10:25:20;1.23;;;1.00;;
36105;SDS011;22159;55.736;38.048;2024-03-08T10:27:46;1.20;;;1.10;;
36105;SDS011;22159;55.736;38.048;2024-03-08T10:30:13;2.22;;;1.27;;
36105;SDS011;22159;55.736;38.048;2024-03-08T10:32:40;1.83;;;1.08;;
36105;SDS011;22159;55.736;38.048;2024-03-08T10:35:07;3.33;;;1.10;;
36105;SDS011;22159;55.736;38.048;2024-03-08T10:37:34;1.08;;;0.98;;
36105;SDS011;22159;55.736;38.048;2024-03-08T10:40:05;2.00;;;1.00;;
36105;SDS011;22159;55.736;38.048;2024-03-08T10:42:35;2.10;;;1.20;;
36105;SDS011;22159;55.736;38.048;2024-03-08T10:45:15;1.42;;;1.33;;
36105;SDS011;22159;55.736;38.048;2024-03-08T10:47:42;1.25;;;1.00;;
36105;SDS011;22159;55.736;38.048;2024-03-08T10:50:18;1.25;;;0.98;;
36105;SDS011;22159;55.736;38.048;2024-03-08T10:52:50;2.17;;;1.38;;
36105;SDS011;22159;55.736;38.048;2024-03-08T10:55:17;1.48;;;1.10;;
36105;SDS011;22159;55.736;38.048;2024-03-08T10:57:45;1.42;;;1.17;;
36105;SDS011;22159;55.736;38.048;2024-03-08T11:00:12;2.20;;;1.15;;
36105;SDS011;22159;55.736;38.048;2024-03-08T11:02:43;1.90;;;1.40;;
36105;SDS011;22159;55.736;38.048;2024-03-08T11:05:31;1.50;;;1.10;;
36105;SDS011;22159;55.736;38.048;2024-03-08T11:10:26;2.05;;;1.20;;
36105;SDS011;22159;55.736;38.048;2024-03-08T11:12:52;1.30;;;1.10;;
36105;SDS011;22159;55.736;38.048;2024-03-08T11:15:18;2.08;;;1.10;;
36105;SDS011;22159;55.736;38.048;2024-03-08T11:17:45;1.55;;;1.05;;
36105;SDS011;22159;55.736;38.048;2024-03-08T11:20:12;2.72;;;1.15;;
36105;SDS011;22159;55.736;38.048;2024-03-08T11:30:44;1.70;;;1.60;;
36105;SDS011;22159;55.736;38.048;2024-03-08T11:33:14;2.45;;;1.33;;
36105;SDS011;22159;55.736;38.048;2024-03-08T11:35:41;1.73;;;1.33;;
36105;SDS011;22159;55.736;38.048;2024-03-08T11:38:10;2.38;;;1.30;;
36105;SDS011;22159;55.736;38.048;2024-03-08T11:40:36;2.47;;;1.40;;
36105;SDS011;22159;55.736;38.048;2024-03-08T11:43:02;1.83;;;1.27;;
36105;SDS011;22159;55.736;38.048;2024-03-08T11:45:32;1.55;;;1.30;;
36105;SDS011;22159;55.736;38.048;2024-03-08T11:48:01;2.35;;;1.48;;
36105;SDS011;22159;55.736;38.048;2024-03-08T11:50:28;1.85;;;1.50;;
36105;SDS011;22159;55.736;38.048;2024-03-08T11:53:03;3.33;;;1.50;;
36105;SDS011;22159;55.736;38.048;2024-03-08T11:55:31;3.80;;;1.55;;
36105;SDS011;22159;55.736;38.048;2024-03-08T11:58:04;1.63;;;1.42;;
36105;SDS011;22159;55.736;38.048;2024-03-08T12:00:33;2.15;;;1.60;;
36105;SDS011;22159;55.736;38.048;2024-03-08T12:03:06;3.53;;;1.30;;
36105;SDS011;22159;55.736;38.048;2024-03-08T12:05:34;1.90;;;1.25;;
36105;SDS011;22159;55.736;38.048;2024-03-08T12:08:03;2.85;;;1.45;;
36105;SDS011;22159;55.736;38.048;2024-03-08T12:10:31;4.88;;;1.50;;
36105;SDS011;22159;55.736;38.048;2024-03-08T12:12:58;1.92;;;1.20;;
36105;SDS011;22159;55.736;38.048;2024-03-08T12:15:25;2.17;;;1.40;;
36105;SDS011;22159;55.736;38.048;2024-03-08T12:17:53;4.80;;;1.80;;
36105;SDS011;22159;55.736;38.048;2024-03-08T12:20:24;2.53;;;1.52;;
36105;SDS011;22159;55.736;38.048;2024-03-08T12:22:51;2.97;;;1.13;;
36105;SDS011;22159;55.736;38.048;2024-03-08T12:25:18;3.97;;;1.40;;
36105;SDS011;22159;55.736;38.048;2024-03-08T12:27:45;1.50;;;1.40;;
36105;SDS011;22159;55.736;38.048;2024-03-08T12:30:15;3.45;;;1.27;;
36105;SDS011;22159;55.736;38.048;2024-03-08T12:32:46;2.03;;;1.80;;
36105;SDS011;22159;55.736;38.048;2024-03-08T12:37:38;2.47;;;1.23;;
36105;SDS011;22159;55.736;38.048;2024-03-08T12:40:08;4.75;;;1.60;;
36105;SDS011;22159;55.736;38.048;2024-03-08T12:42:35;2.13;;;1.33;;
36105;SDS011;22159;55.736;38.048;2024-03-08T12:45:02;4.13;;;1.73;;
36105;SDS011;22159;55.736;38.048;2024-03-08T12:47:31;2.80;;;1.45;;
36105;SDS011;22159;55.736;38.048;2024-03-08T12:49:58;4.18;;;1.58;;
36105;SDS011;22159;55.736;38.048;2024-03-08T12:52:24;4.97;;;1.45;;
36105;SDS011;22159;55.736;38.048;2024-03-08T12:54:50;2.05;;;1.10;;
36105;SDS011;22159;55.736;38.048;2024-03-08T12:57:16;1.85;;;1.67;;
36105;SDS011;22159;55.736;38.048;2024-03-08T12:59:43;2.55;;;1.38;;
36105;SDS011;22159;55.736;38.048;2024-03-08T13:02:09;4.22;;;1.70;;
36105;SDS011;22159;55.736;38.048;2024-03-08T13:04:36;3.10;;;1.75;;
36105;SDS011;22159;55.736;38.048;2024-03-08T13:07:02;1.50;;;1.13;;
36105;SDS011;22159;55.736;38.048;2024-03-08T13:09:28;3.88;;;1.95;;
36105;SDS011;22159;55.736;38.048;2024-03-08T13:11:56;3.50;;;1.55;;
36105;SDS011;22159;55.736;38.048;2024-03-08T13:14:25;3.80;;;1.60;;
36105;SDS011;22159;55.736;38.048;2024-03-08T13:16:51;2.97;;;1.55;;
36105;SDS011;22159;55.736;38.048;2024-03-08T13:19:19;2.47;;;1.60;;
36105;SDS011;22159;55.736;38.048;2024-03-08T13:21:47;2.92;;;1.55;;
36105;SDS011;22159;55.736;38.048;2024-03-08T13:24:16;2.33;;;1.40;;
36105;SDS011;22159;55.736;38.048;2024-03-08T13:26:44;4.10;;;1.60;;
36105;SDS011;22159;55.736;38.048;2024-03-08T13:29:10;2.28;;;1.42;;
36105;SDS011;22159;55.736;38.048;2024-03-08T13:31:36;1.52;;;1.40;;
36105;SDS011;22159;55.736;38.048;2024-03-08T13:34:02;1.98;;;1.20;;
36105;SDS011;22159;55.736;38.048;2024-03-08T13:36:30;2.50;;;1.45;;
36105;SDS011;22159;55.736;38.048;2024-03-08T13:39:04;1.77;;;1.58;;
36105;SDS011;22159;55.736;38.048;2024-03-08T13:41:40;3.05;;;1.30;;
36105;SDS011;22159;55.736;38.048;2024-03-08T13:44:06;1.60;;;1.50;;
36105;SDS011;22159;55.736;38.048;2024-03-08T13:46:33;1.85;;;1.55;;
36105;SDS011;22159;55.736;38.048;2024-03-08T13:49:03;1.52;;;1.40;;
36105;SDS011;22159;55.736;38.048;2024-03-08T13:51:36;2.55;;;1.42;;
36105;SDS011;22159;55.736;38.048;2024-03-08T13:54:02;2.75;;;1.55;;
36105;SDS011;22159;55.736;38.048;2024-03-08T13:56:31;1.55;;;1.25;;
36105;SDS011;22159;55.736;38.048;2024-03-08T13:58:57;2.60;;;1.25;;
36105;SDS011;22159;55.736;38.048;2024-03-08T14:01:23;2.28;;;1.15;;
36105;SDS011;22159;55.736;38.048;2024-03-08T14:03:50;1.42;;;1.30;;
36105;SDS011;22159;55.736;38.048;2024-03-08T14:06:16;1.80;;;1.25;;
36105;SDS011;22159;55.736;38.048;2024-03-08T14:08:43;2.53;;;1.27;;
36105;SDS011;22159;55.736;38.048;2024-03-08T14:11:09;1.75;;;1.27;;
36105;SDS011;22159;55.736;38.048;2024-03-08T14:13:42;1.90;;;1.30;;
36105;SDS011;22159;55.736;38.048;2024-03-08T14:16:10;2.65;;;1.40;;
36105;SDS011;22159;55.736;38.048;2024-03-08T14:18:36;2.03;;;1.20;;
36105;SDS011;22159;55.736;38.048;2024-03-08T14:21:03;3.15;;;1.60;;
36105;SDS011;22159;55.736;38.048;2024-03-08T14:23:29;2.00;;;1.40;;
36105;SDS011;22159;55.736;38.048;2024-03-08T14:25:55;2.92;;;1.40;;
36105;SDS011;22159;55.736;38.048;2024-03-08T14:28:24;2.45;;;1.48;;
36105;SDS011;22159;55.736;38.048;2024-03-08T14:30:52;1.88;;;1.30;;
36105;SDS011;22159;55.736;38.048;2024-03-08T14:33:19;2.03;;;1.25;;
36105;SDS011;22159;55.736;38.048;2024-03-08T14:35:48;1.30;;;1.20;;
36105;SDS011;22159;55.736;38.048;2024-03-08T14:38:14;1.92;;;1.20;;
36105;SDS011;22159;55.736;38.048;2024-03-08T14:40:43;2.55;;;1.25;;
36105;SDS011;22159;55.736;38.048;2024-03-08T14:43:14;1.77;;;1.35;;
36105;SDS011;22159;55.736;38.048;2024-03-08T14:45:41;1.92;;;1.20;;
36105;SDS011;22159;55.736;38.048;2024-03-08T14:48:07;1.83;;;1.20;;
36105;SDS011;22159;55.736;38.048;2024-03-08T14:50:33;1.70;;;1.30;;